VOBZ/VGA METAR and TAF weather

Enter ICAO airport designator
Station Type Date Time Source
VOBZ METAR 2019/11/18 12:00 UTC NOAA

VOBZ 181200Z 16004KT 5000 HZ FEW020 FEW030CB 28/24 Q1011 NOSIG


Station Type Date Time Source
VOBZ Decoded METAR 2019/11/18 12:00 UTC NOAA

Vijayawada / Gannavaram, India (VOBZ) 16-32N 080-48E 24M
Nov 18, 2019 - 07:00 AM EST / 2019.11.18 1200 UTC
Wind: from the SSE (160 degrees) at 5 MPH (4 KT):0
Visibility: 3 mile(s):0
Sky conditions: mostly clear
Weather: haze; Cumulonimbus clouds observed
Temperature: 82 F (28 C)
Dew Point: 75 F (24 C)
Relative Humidity: 78%
Pressure (altimeter): 29.85 in. Hg (1011 hPa)
ob: VOBZ 181200Z 16004KT 5000 HZ FEW020 FEW030CB 28/24 Q1011 NOSIG
cycle: 12

Station Type Date Time Source
VOBZ TAF 2019/10/27 00:00 UTC NOAA

TAF VOBZ 272300Z 2800/2809 11006KT 3000 BR SCT015 BKN100
TEMPO 2800/2803 VRB05KT 1500 TSRA BKN010 FEW030CB
BECMG 2805/2807 10010KT 6000 SCT015 SCT025

Example: see airport list